Time;durP1;ratioP1;P1;durP2;ratioP2;P2;SDS_P1;SDS_P2;PMS_P1;PMS_P2;Temp;Humidity;BMP_temperature;BMP_pressure;BME280_temperature;BME280_humidity;BME280_pressure;Samples;Min_cycle;Max_cycle;Signal;HPM_P1;HPM_P2
2024/02/07 00:02:38;;;;;;;1.60;1.10;;;23.70;44.20;;;;;;6149774;28;81016;-49
2024/02/07 00:05:38;;;;;;;3.20;1.67;;;23.70;44.30;;;;;;6137873;28;81087;-49
2024/02/07 00:08:39;;;;;;;3.28;1.52;;;23.60;44.20;;;;;;6142361;28;80443;-49
2024/02/07 00:11:39;;;;;;;1.65;1.25;;;23.70;44.30;;;;;;6135047;28;81459;-50
2024/02/07 00:14:40;;;;;;;4.75;2.05;;;23.70;44.40;;;;;;6147140;28;81447;-64
2024/02/07 00:17:40;;;;;;;1.90;1.30;;;23.70;44.20;;;;;;6144494;28;81848;-64
2024/02/07 00:20:40;;;;;;;2.50;1.40;;;23.70;44.20;;;;;;6148636;28;80608;-64
2024/02/07 00:23:41;;;;;;;5.28;1.50;;;23.70;44.20;;;;;;6153996;28;80983;-65
2024/02/07 00:26:41;;;;;;;2.97;1.50;;;23.70;44.20;;;;;;6144729;28;80421;-63
2024/02/07 00:29:42;;;;;;;3.95;1.83;;;23.70;44.20;;;;;;6153006;28;80316;-62
2024/02/07 00:32:42;;;;;;;5.07;1.38;;;23.70;44.20;;;;;;6144551;28;80335;-64
2024/02/07 00:35:43;;;;;;;2.42;1.42;;;23.70;44.20;;;;;;6151045;28;80521;-64
2024/02/07 00:38:43;;;;;;;3.05;1.60;;;23.70;44.20;;;;;;6144000;28;82873;-65
2024/02/07 00:41:44;;;;;;;1.15;1.00;;;23.70;44.20;;;;;;6154840;28;80431;-64
2024/02/07 00:44:44;;;;;;;2.50;1.27;;;23.70;44.10;;;;;;6153631;28;80264;-64
2024/02/07 00:47:46;;;;;;;1.67;1.20;;;23.70;44.10;;;;;;6155111;28;80595;-64
2024/02/07 00:50:46;;;;;;;3.47;1.65;;;23.70;44.10;;;;;;6146433;28;80642;-64
2024/02/07 00:53:47;;;;;;;1.38;1.05;;;23.70;44.10;;;;;;6154484;28;83651;-62
2024/02/07 00:56:47;;;;;;;2.50;1.27;;;23.70;44.10;;;;;;6151615;28;80321;-63
2024/02/07 00:59:48;;;;;;;1.77;1.10;;;23.60;44.10;;;;;;6154139;28;81258;-64
2024/02/07 01:02:48;;;;;;;2.15;1.20;;;23.70;44.10;;;;;;6154770;28;80840;-62
2024/02/07 01:05:49;;;;;;;2.47;1.33;;;23.70;44.10;;;;;;6154149;28;80952;-64
2024/02/07 01:08:49;;;;;;;1.48;1.02;;;23.70;44.10;;;;;;6152258;28;80182;-63
2024/02/07 01:11:51;;;;;;;2.13;1.35;;;23.70;44.10;;;;;;6153058;28;82579;-62
2024/02/07 01:14:52;;;;;;;1.67;0.90;;;23.60;44.10;;;;;;6155286;28;80405;-62
2024/02/07 01:17:52;;;;;;;1.83;1.00;;;23.60;44.10;;;;;;6153953;28;82256;-64
2024/02/07 01:20:53;;;;;;;1.73;1.20;;;23.60;44.10;;;;;;6154456;28;81746;-65
2024/02/07 01:23:53;;;;;;;2.00;1.02;;;23.60;44.10;;;;;;6154655;28;80844;-63
2024/02/07 01:26:54;;;;;;;1.25;1.10;;;23.60;44.10;;;;;;6154963;28;80201;-61
2024/02/07 01:29:56;;;;;;;1.48;0.90;;;23.60;44.30;;;;;;6142171;28;80967;-61
2024/02/07 01:32:56;;;;;;;2.53;1.27;;;23.60;44.10;;;;;;6153165;28;80469;-62
2024/02/07 01:35:57;;;;;;;1.80;1.30;;;23.70;44.20;;;;;;6152636;28;87868;-62
2024/02/07 01:38:58;;;;;;;1.65;1.17;;;23.70;44.10;;;;;;6136266;28;80511;-64
2024/02/07 01:41:59;;;;;;;1.48;1.30;;;23.70;44.00;;;;;;6169381;28;80990;-64
2024/02/07 01:45:00;;;;;;;2.15;1.00;;;23.70;44.10;;;;;;6151229;28;80696;-53
2024/02/07 01:48:00;;;;;;;2.08;1.15;;;23.70;44.00;;;;;;6131327;28;80775;-50
2024/02/07 01:51:01;;;;;;;1.85;1.15;;;23.70;44.10;;;;;;6154083;28;81014;-49
2024/02/07 01:54:01;;;;;;;1.42;0.95;;;23.70;44.00;;;;;;6147550;28;80614;-53
2024/02/07 01:57:02;;;;;;;3.00;1.30;;;23.70;44.20;;;;;;6154255;28;80825;-51
2024/02/07 02:00:02;;;;;;;1.98;0.93;;;23.70;44.20;;;;;;6153934;28;80925;-53
2024/02/07 02:03:12;;;;;;;3.55;1.20;;;23.70;44.30;;;;;;6140102;28;80463;-64
2024/02/07 02:06:13;;;;;;;3.83;1.52;;;23.70;44.20;;;;;;6150531;28;81985;-64
2024/02/07 02:09:14;;;;;;;2.72;1.10;;;23.70;44.20;;;;;;6140881;28;81033;-64
2024/02/07 02:12:14;;;;;;;1.40;1.10;;;23.70;44.20;;;;;;6153883;28;80844;-64
2024/02/07 02:15:15;;;;;;;1.60;0.90;;;23.70;44.30;;;;;;6153023;28;81294;-63
2024/02/07 02:18:15;;;;;;;2.25;1.00;;;23.70;44.30;;;;;;6144588;28;80615;-64
2024/02/07 02:21:16;;;;;;;1.88;1.10;;;23.70;44.40;;;;;;6148350;28;81309;-64
2024/02/07 02:24:16;;;;;;;2.05;1.02;;;23.70;44.50;;;;;;6153614;28;80683;-52
2024/02/07 02:27:17;;;;;;;2.95;1.27;;;23.70;44.20;;;;;;6152731;28;80483;-53
2024/02/07 02:30:21;;;;;;;2.03;0.80;;;23.70;44.20;;;;;;6150483;28;80395;-50
2024/02/07 02:33:21;;;;;;;3.35;1.20;;;23.60;44.20;;;;;;6152079;28;80369;-52
2024/02/07 02:36:23;;;;;;;2.67;1.00;;;23.60;44.20;;;;;;6141846;28;80416;-51
2024/02/07 02:39:23;;;;;;;2.10;1.02;;;23.70;44.10;;;;;;6134752;28;80708;-52
2024/02/07 02:42:24;;;;;;;1.45;0.90;;;23.60;44.00;;;;;;6127992;28;80962;-61
2024/02/07 02:45:25;;;;;;;2.65;1.20;;;23.60;44.10;;;;;;6151956;28;80417;-62
2024/02/07 02:48:25;;;;;;;4.07;1.20;;;23.60;44.10;;;;;;6142703;28;80459;-63
2024/02/07 02:51:26;;;;;;;3.50;1.20;;;23.60;44.10;;;;;;6148278;28;80509;-63
2024/02/07 02:54:29;;;;;;;1.77;0.98;;;23.60;44.00;;;;;;6151233;28;81580;-62
2024/02/07 02:57:31;;;;;;;2.40;1.25;;;23.60;44.00;;;;;;6139183;28;82655;-60
2024/02/07 03:00:31;;;;;;;2.25;0.82;;;23.60;44.10;;;;;;6141427;28;80563;-62
2024/02/07 03:03:32;;;;;;;2.05;1.00;;;23.60;43.90;;;;;;6152410;28;80314;-61
2024/02/07 03:09:52;;;;;;;1.95;0.95;;;23.60;43.90;;;;;;6151765;28;81323;-61
2024/02/07 03:12:53;;;;;;;2.35;0.93;;;23.60;44.00;;;;;;6151372;28;80850;-63
2024/02/07 03:15:53;;;;;;;1.95;0.93;;;23.60;43.90;;;;;;6140779;28;81288;-63
2024/02/07 03:18:56;;;;;;;2.13;1.00;;;23.60;44.00;;;;;;6151859;28;80524;-52
2024/02/07 03:21:57;;;;;;;1.25;0.90;;;23.60;44.10;;;;;;6151182;28;80421;-53
2024/02/07 03:24:58;;;;;;;3.42;1.13;;;23.60;44.10;;;;;;6152095;28;80483;-50
2024/02/07 03:27:59;;;;;;;1.67;0.88;;;23.60;44.00;;;;;;6151976;28;81187;-52
2024/02/07 03:31:00;;;;;;;3.10;1.35;;;23.60;44.00;;;;;;6150836;28;81826;-51
2024/02/07 03:34:00;;;;;;;2.15;0.98;;;23.60;44.00;;;;;;6151853;28;81317;-54
2024/02/07 03:37:00;;;;;;;1.88;1.13;;;23.60;44.00;;;;;;6152041;28;80656;-50
2024/02/07 03:40:04;;;;;;;1.45;0.90;;;23.60;43.90;;;;;;6151235;28;81413;-51
2024/02/07 03:43:06;;;;;;;2.67;1.20;;;23.60;43.90;;;;;;6151440;28;80502;-50
2024/02/07 03:46:07;;;;;;;2.20;1.10;;;23.60;44.10;;;;;;6139487;28;86514;-54
2024/02/07 03:49:07;;;;;;;1.83;0.98;;;23.60;44.00;;;;;;6153417;28;80630;-52
2024/02/07 03:52:08;;;;;;;2.90;1.00;;;23.60;43.90;;;;;;6162364;28;82366;-53
2024/02/07 03:55:08;;;;;;;1.63;0.98;;;23.70;44.00;;;;;;6146714;28;81424;-64
2024/02/07 03:58:09;;;;;;;1.67;0.98;;;23.60;44.00;;;;;;6146262;28;80932;-69
2024/02/07 04:01:12;;;;;;;2.17;0.85;;;23.60;44.00;;;;;;6150135;28;80523;-62
2024/02/07 04:04:13;;;;;;;2.30;1.15;;;23.60;44.10;;;;;;6152197;28;80390;-61
2024/02/07 04:07:14;;;;;;;1.77;0.95;;;23.60;44.50;;;;;;6155052;28;80284;-70
2024/02/07 04:10:14;;;;;;;1.15;0.80;;;23.60;44.50;;;;;;6156871;28;81435;-69
2024/02/07 05:16:02;;;;;;;2.47;0.90;;;23.80;44.20;;;;;;6135305;28;82445;-52
2024/02/07 05:19:03;;;;;;;1.48;0.88;;;23.80;44.70;;;;;;6131275;28;81528;-51
2024/02/07 05:22:03;;;;;;;3.33;1.02;;;23.80;44.60;;;;;;6150012;28;80109;-53
2024/02/07 05:25:05;;;;;;;1.50;0.85;;;23.80;44.80;;;;;;6146618;28;80876;-47
2024/02/07 05:28:06;;;;;;;5.55;1.45;;;23.90;44.80;;;;;;6141743;28;80558;-52
2024/02/07 05:31:06;;;;;;;1.77;1.27;;;23.90;45.30;;;;;;6153206;28;83266;-48
2024/02/07 05:34:07;;;;;;;2.15;1.20;;;23.90;46.00;;;;;;6150282;28;87551;-54
2024/02/07 05:37:07;;;;;;;2.67;1.52;;;24.00;45.80;;;;;;6152330;28;80540;-53
2024/02/07 05:40:08;;;;;;;4.10;1.20;;;24.00;45.70;;;;;;6164828;28;80406;-49
2024/02/07 05:43:08;;;;;;;1.33;0.95;;;24.00;45.60;;;;;;6149740;28;80684;-58
2024/02/07 05:46:08;;;;;;;2.38;1.48;;;24.00;45.70;;;;;;6149761;28;81603;-58
2024/02/07 05:49:09;;;;;;;2.50;1.02;;;23.90;45.50;;;;;;6137066;28;80510;-62
2024/02/07 05:52:09;;;;;;;2.20;1.25;;;24.00;45.30;;;;;;6148664;28;81490;-60
2024/02/07 05:55:10;;;;;;;1.63;0.98;;;23.90;45.70;;;;;;6147755;28;80528;-58
2024/02/07 05:58:10;;;;;;;3.88;1.20;;;24.00;45.50;;;;;;6143720;28;84399;-55
2024/02/07 06:01:11;;;;;;;4.97;1.02;;;24.00;45.40;;;;;;6143688;28;82296;-58
2024/02/07 06:04:12;;;;;;;5.15;1.60;;;24.00;45.20;;;;;;6150666;28;81803;-68
2024/02/07 06:07:12;;;;;;;3.00;1.38;;;24.00;45.20;;;;;;6149404;28;81112;-68
2024/02/07 06:10:13;;;;;;;2.00;0.88;;;23.90;44.90;;;;;;6150363;28;80677;-69
2024/02/07 06:13:13;;;;;;;3.75;1.20;;;23.90;44.60;;;;;;6149782;28;80828;-70
2024/02/07 06:16:14;;;;;;;4.65;1.30;;;23.90;44.50;;;;;;6143964;28;81198;-69
2024/02/07 06:19:17;;;;;;;3.83;1.50;;;23.80;44.30;;;;;;6143752;28;81332;-68
2024/02/07 06:22:18;;;;;;;4.55;1.10;;;23.80;44.20;;;;;;6149845;28;81400;-59
2024/02/07 06:25:18;;;;;;;4.20;0.95;;;23.70;44.00;;;;;;6138610;28;83095;-61
2024/02/07 06:28:19;;;;;;;3.15;1.35;;;23.70;43.80;;;;;;6144948;28;83627;-59
2024/02/07 06:31:19;;;;;;;4.30;1.20;;;23.70;43.60;;;;;;6144243;28;81236;-60
2024/02/07 06:34:21;;;;;;;2.67;1.13;;;23.70;43.70;;;;;;6150260;28;81431;-61
2024/02/07 06:37:21;;;;;;;2.95;1.27;;;23.70;43.60;;;;;;6147922;28;87412;-60
2024/02/07 06:40:22;;;;;;;2.85;1.20;;;23.70;43.60;;;;;;6149196;28;82838;-53
2024/02/07 06:43:22;;;;;;;4.70;1.35;;;23.60;43.30;;;;;;6144579;28;81759;-52
2024/02/07 06:46:23;;;;;;;3.40;1.17;;;23.60;43.30;;;;;;6127662;28;86495;-53
2024/02/07 06:49:24;;;;;;;2.83;1.45;;;23.60;43.10;;;;;;6139835;28;80643;-52
2024/02/07 06:52:24;;;;;;;2.08;1.08;;;23.50;43.00;;;;;;6144929;28;80219;-55
2024/02/07 06:55:24;;;;;;;2.17;1.17;;;23.50;43.10;;;;;;6149797;28;83431;-54
2024/02/07 06:58:25;;;;;;;5.45;1.40;;;23.50;42.70;;;;;;6146382;28;80602;-56
2024/02/07 07:01:27;;;;;;;2.05;1.20;;;23.50;42.80;;;;;;6143196;28;80466;-57
2024/02/07 07:04:28;;;;;;;3.17;1.15;;;23.50;42.90;;;;;;6138898;28;83561;-56
2024/02/07 07:07:28;;;;;;;2.78;1.35;;;23.50;42.90;;;;;;6150581;28;81182;-58
2024/02/07 07:10:29;;;;;;;2.63;1.20;;;23.50;43.00;;;;;;6148448;28;80960;-57
2024/02/07 07:13:29;;;;;;;2.88;1.27;;;23.50;42.70;;;;;;6135634;28;80579;-57
2024/02/07 07:16:30;;;;;;;4.13;1.33;;;23.40;42.70;;;;;;6154744;28;83594;-54
2024/02/07 07:19:30;;;;;;;1.75;0.98;;;23.50;42.60;;;;;;6152983;28;80985;-52
2024/02/07 07:22:31;;;;;;;2.45;1.10;;;23.40;42.40;;;;;;6144599;28;81551;-53
2024/02/07 07:25:31;;;;;;;2.15;1.13;;;23.40;42.30;;;;;;6149751;28;80531;-53
2024/02/07 07:28:32;;;;;;;2.15;1.25;;;23.40;42.20;;;;;;6154193;28;80437;-52
2024/02/07 07:31:35;;;;;;;2.60;1.20;;;23.40;42.30;;;;;;6148704;28;80925;-57
2024/02/07 07:34:36;;;;;;;5.18;1.40;;;23.40;42.20;;;;;;6131093;28;87633;-57
2024/02/07 07:37:36;;;;;;;2.40;1.40;;;23.40;42.20;;;;;;6138488;28;82368;-59
2024/02/07 07:40:38;;;;;;;2.53;1.40;;;23.40;42.20;;;;;;6158456;28;81017;-58
2024/02/07 07:43:38;;;;;;;1.85;1.15;;;23.40;42.20;;;;;;6150781;28;82186;-56
2024/02/07 07:46:40;;;;;;;2.10;1.23;;;23.30;42.20;;;;;;6157546;28;83170;-58
2024/02/07 07:49:40;;;;;;;3.63;1.38;;;23.30;42.20;;;;;;6161244;28;80412;-57
2024/02/07 07:52:41;;;;;;;3.70;1.92;;;23.30;42.20;;;;;;6159755;28;80877;-60
2024/02/07 07:55:41;;;;;;;3.53;1.40;;;23.30;42.10;;;;;;6160673;28;80775;-59
2024/02/07 07:58:43;;;;;;;2.22;1.30;;;23.30;42.20;;;;;;6140663;28;83429;-59
2024/02/07 08:01:44;;;;;;;2.22;1.42;;;23.30;42.20;;;;;;6151803;28;80840;-59
2024/02/07 08:04:44;;;;;;;5.88;1.40;;;23.30;42.20;;;;;;6160006;28;80575;-59
2024/02/07 08:07:45;;;;;;;5.45;1.35;;;23.30;42.00;;;;;;6152703;28;81229;-61
2024/02/07 08:10:46;;;;;;;2.40;1.42;;;23.30;42.00;;;;;;6140975;28;80964;-59
2024/02/07 08:13:47;;;;;;;3.20;1.35;;;23.30;41.70;;;;;;6149086;28;81718;-59
2024/02/07 08:16:48;;;;;;;2.60;1.20;;;23.20;41.50;;;;;;6149424;28;80829;-59
2024/02/07 08:19:49;;;;;;;3.85;1.52;;;23.20;41.40;;;;;;6147226;28;80600;-60
2024/02/07 08:22:49;;;;;;;4.43;1.75;;;23.00;39.70;;;;;;6152117;28;81195;-61
2024/02/07 08:25:49;;;;;;;2.95;1.80;;;22.30;39.30;;;;;;6150007;28;81136;-61
2024/02/07 08:28:50;;;;;;;4.22;1.67;;;21.90;39.40;;;;;;6152772;28;81022;-58
2024/02/07 08:31:50;;;;;;;4.57;1.95;;;21.80;39.50;;;;;;6152008;28;80481;-59
2024/02/07 08:34:51;;;;;;;13.32;3.25;;;21.60;39.60;;;;;;6152735;28;80532;-59
2024/02/07 08:37:54;;;;;;;4.88;1.83;;;21.70;39.90;;;;;;6145989;28;82625;-58
2024/02/07 08:40:56;;;;;;;4.50;1.58;;;21.30;39.80;;;;;;6156661;28;80278;-60
2024/02/07 08:43:56;;;;;;;3.95;1.90;;;21.30;40.00;;;;;;6153159;28;82969;-61
2024/02/07 08:46:57;;;;;;;3.95;2.05;;;21.10;40.00;;;;;;6152531;28;80871;-68
2024/02/07 08:49:57;;;;;;;5.72;1.90;;;21.00;40.50;;;;;;6153120;28;80420;-67
2024/02/07 08:52:59;;;;;;;4.13;1.90;;;20.90;40.70;;;;;;6134508;28;80527;-66
2024/02/07 08:55:59;;;;;;;3.78;1.98;;;20.70;40.70;;;;;;6148541;28;90010;-67
2024/02/07 08:59:00;;;;;;;3.65;1.67;;;20.60;41.30;;;;;;6146507;28;80789;-67
2024/02/07 09:02:00;;;;;;;3.22;1.83;;;20.50;41.90;;;;;;6149836;28;80822;-67
2024/02/07 09:05:07;;;;;;;7.97;2.08;;;20.60;41.90;;;;;;6152402;28;80173;-68
2024/02/07 09:08:07;;;;;;;4.15;1.90;;;20.60;42.10;;;;;;6148541;28;82910;-50
2024/02/07 09:11:08;;;;;;;8.75;2.30;;;20.60;42.40;;;;;;6142230;28;80331;-47
2024/02/07 09:14:08;;;;;;;4.45;1.98;;;20.60;42.30;;;;;;6148210;28;81180;-49
2024/02/07 09:17:09;;;;;;;7.72;2.95;;;20.50;43.00;;;;;;6140012;28;80597;-49
2024/02/07 09:20:09;;;;;;;4.13;1.80;;;20.50;43.00;;;;;;6152122;28;80583;-50
2024/02/07 09:23:10;;;;;;;4.15;1.83;;;20.30;43.10;;;;;;6152268;28;80507;-52
2024/02/07 09:26:10;;;;;;;8.95;1.77;;;20.30;43.50;;;;;;6151693;28;80462;-55
2024/02/07 09:29:10;;;;;;;5.80;1.80;;;20.20;43.30;;;;;;6152254;28;81607;-56
2024/02/07 09:32:11;;;;;;;6.28;2.20;;;20.00;43.90;;;;;;6125999;28;80671;-53
2024/02/07 09:35:11;;;;;;;5.80;2.40;;;19.90;44.10;;;;;;6140709;28;80648;-54
2024/02/07 09:38:12;;;;;;;6.18;1.88;;;19.60;43.90;;;;;;6152073;28;82266;-59
2024/02/07 09:41:12;;;;;;;3.30;1.88;;;19.70;44.20;;;;;;6150717;28;80411;-58
2024/02/07 09:44:13;;;;;;;2.55;1.67;;;19.40;43.90;;;;;;6151947;28;80711;-61
2024/02/07 09:47:14;;;;;;;5.13;2.30;;;19.10;44.20;;;;;;6151189;28;81787;-60
2024/02/07 09:50:14;;;;;;;3.92;1.75;;;19.00;44.50;;;;;;6144337;28;80287;-62
2024/02/07 09:53:14;;;;;;;4.15;1.98;;;18.90;45.00;;;;;;6150863;28;81289;-59
2024/02/07 09:56:15;;;;;;;8.45;2.10;;;19.00;45.10;;;;;;6151524;28;80748;-59
2024/02/07 09:59:15;;;;;;;3.25;2.15;;;19.10;45.10;;;;;;6151125;28;80653;-59
2024/02/07 10:02:16;;;;;;;5.13;1.85;;;19.10;45.30;;;;;;6149382;28;80643;-60
2024/02/07 10:05:17;;;;;;;6.47;2.35;;;19.20;45.60;;;;;;6144220;28;83762;-59
2024/02/07 10:08:17;;;;;;;6.15;2.53;;;18.90;46.40;;;;;;6151209;28;80407;-60
2024/02/07 10:11:18;;;;;;;3.75;1.75;;;19.10;46.80;;;;;;6140078;28;80592;-61
2024/02/07 10:14:18;;;;;;;4.95;1.92;;;18.80;47.30;;;;;;6148842;28;82161;-59
2024/02/07 10:17:19;;;;;;;5.82;2.10;;;18.80;47.70;;;;;;6139026;28;82152;-59
2024/02/07 10:20:19;;;;;;;7.90;2.10;;;18.90;47.80;;;;;;6151810;28;82835;-56
2024/02/07 10:23:20;;;;;;;3.88;1.80;;;19.00;47.50;;;;;;6150252;28;81897;-54
2024/02/07 10:26:20;;;;;;;4.90;2.03;;;19.00;47.60;;;;;;6152336;28;80453;-56
2024/02/07 10:29:22;;;;;;;5.20;2.08;;;19.10;47.60;;;;;;6143438;28;83454;-55
2024/02/07 10:32:23;;;;;;;5.15;2.15;;;18.90;47.50;;;;;;6148848;28;80872;-54
2024/02/07 10:35:23;;;;;;;3.83;2.60;;;18.70;47.40;;;;;;6150087;28;81939;-56
2024/02/07 10:38:24;;;;;;;6.32;2.22;;;18.60;48.10;;;;;;6149188;28;80097;-53
2024/02/07 10:41:24;;;;;;;4.03;2.22;;;18.80;47.80;;;;;;6150634;28;80350;-53
2024/02/07 10:44:25;;;;;;;4.43;1.90;;;18.80;47.80;;;;;;6152186;28;80445;-51
2024/02/07 10:47:25;;;;;;;3.90;1.55;;;18.70;47.80;;;;;;6146655;28;82103;-52
2024/02/07 10:50:26;;;;;;;8.13;2.03;;;18.70;48.00;;;;;;6137558;28;88495;-56
2024/02/07 10:53:26;;;;;;;4.15;1.88;;;18.60;47.90;;;;;;6150665;28;80553;-57
2024/02/07 10:56:27;;;;;;;4.57;1.73;;;18.60;47.50;;;;;;6133746;28;81468;-50
2024/02/07 10:59:27;;;;;;;3.35;1.80;;;18.60;47.80;;;;;;6164316;28;80785;-52
2024/02/07 11:02:28;;;;;;;4.00;2.00;;;18.50;47.50;;;;;;6152568;28;81380;-50
2024/02/07 11:05:29;;;;;;;8.27;1.98;;;18.70;47.70;;;;;;6151165;28;81411;-52
2024/02/07 11:08:30;;;;;;;3.85;1.60;;;18.60;47.50;;;;;;6140138;28;80623;-54
2024/02/07 11:11:30;;;;;;;6.65;2.10;;;18.70;47.50;;;;;;6150869;28;80755;-51
2024/02/07 11:14:31;;;;;;;4.18;1.95;;;18.60;47.60;;;;;;6150670;28;81783;-69
2024/02/07 11:17:31;;;;;;;4.15;1.92;;;18.60;47.50;;;;;;6145057;28;80307;-68
2024/02/07 11:20:32;;;;;;;4.40;2.20;;;18.70;47.30;;;;;;6148112;28;80675;-67
2024/02/07 11:23:35;;;;;;;4.40;2.00;;;18.50;47.60;;;;;;6174097;28;80567;-67
2024/02/07 11:26:35;;;;;;;3.28;1.60;;;18.40;48.00;;;;;;6145713;28;80853;-67
2024/02/07 11:29:36;;;;;;;5.28;2.05;;;18.50;48.00;;;;;;6152648;28;80403;-66
2024/02/07 11:32:38;;;;;;;5.47;2.25;;;18.60;48.30;;;;;;6142702;28;80621;-66
2024/02/07 11:35:38;;;;;;;4.50;2.13;;;18.50;48.00;;;;;;6150744;28;81304;-67
2024/02/07 11:38:39;;;;;;;3.47;1.95;;;18.60;48.10;;;;;;6152000;28;80436;-67
2024/02/07 11:41:39;;;;;;;5.22;2.15;;;18.80;48.10;;;;;;6152091;28;80857;-67
2024/02/07 11:44:40;;;;;;;6.13;2.10;;;18.90;47.70;;;;;;6151058;28;80802;-67
2024/02/07 11:47:42;;;;;;;5.45;2.33;;;18.90;47.80;;;;;;6151938;28;83902;-67
2024/02/07 11:50:43;;;;;;;5.93;2.50;;;19.00;47.60;;;;;;6150936;28;80057;-65
2024/02/07 11:53:43;;;;;;;4.97;2.22;;;19.20;47.40;;;;;;6151285;28;81309;-63
2024/02/07 11:56:44;;;;;;;2.80;1.65;;;19.70;47.20;;;;;;6146659;28;80217;-66
2024/02/07 11:59:44;;;;;;;4.95;2.10;;;20.10;46.60;;;;;;6136184;28;80415;-68
2024/02/07 12:02:45;;;;;;;5.07;1.63;;;20.40;46.40;;;;;;6145483;28;81339;-65
2024/02/07 12:05:48;;;;;;;3.70;1.80;;;20.60;46.20;;;;;;6147940;28;80636;-66
2024/02/07 12:08:49;;;;;;;11.35;1.90;;;20.80;45.90;;;;;;6138867;28;85182;-66
2024/02/07 12:11:49;;;;;;;5.78;2.22;;;20.90;46.40;;;;;;6173095;28;80548;-66
2024/02/07 12:14:50;;;;;;;5.40;2.30;;;21.10;45.80;;;;;;6131175;28;80377;-64
2024/02/07 12:17:51;;;;;;;4.05;1.90;;;21.30;45.60;;;;;;6152955;28;80235;-65
2024/02/07 12:20:51;;;;;;;4.90;2.00;;;21.40;45.50;;;;;;6150280;28;80728;-64
2024/02/07 12:23:52;;;;;;;6.03;2.35;;;21.50;45.30;;;;;;6146035;28;85009;-65
2024/02/07 12:26:52;;;;;;;5.45;2.10;;;21.60;45.30;;;;;;6165569;28;81993;-66
2024/02/07 12:29:53;;;;;;;5.35;2.05;;;21.70;45.20;;;;;;6163783;28;80354;-63
2024/02/07 12:32:53;;;;;;;4.35;2.03;;;21.70;45.00;;;;;;6174795;28;81058;-65
2024/02/07 12:35:54;;;;;;;2.63;1.67;;;21.80;44.90;;;;;;6171725;28;80443;-64
2024/02/07 12:38:54;;;;;;;4.57;1.75;;;21.90;44.60;;;;;;6163507;28;80473;-63
2024/02/07 12:41:55;;;;;;;4.85;1.98;;;21.90;44.80;;;;;;6156793;28;80333;-63
2024/02/07 12:44:55;;;;;;;4.28;2.08;;;22.00;44.60;;;;;;6157931;28;80406;-63
2024/02/07 12:47:57;;;;;;;5.35;2.40;;;22.00;44.50;;;;;;6162307;28;80553;-63
2024/02/07 12:50:58;;;;;;;3.45;1.77;;;22.10;44.50;;;;;;6169861;28;80716;-65
2024/02/07 12:53:58;;;;;;;3.42;2.00;;;22.20;44.50;;;;;;6174797;28;81251;-63
2024/02/07 12:56:59;;;;;;;5.72;2.05;;;22.20;44.30;;;;;;6174755;28;80804;-63
2024/02/07 12:59:59;;;;;;;4.05;2.08;;;22.20;44.40;;;;;;6168873;28;80612;-64
2024/02/07 13:03:00;;;;;;;2.97;1.63;;;22.30;44.40;;;;;;6170242;28;84410;-65
2024/02/07 13:06:00;;;;;;;2.72;1.60;;;22.40;44.30;;;;;;6166723;28;80413;-58
2024/02/07 13:09:01;;;;;;;4.93;1.85;;;22.40;44.30;;;;;;6179817;28;80366;-57
2024/02/07 13:12:01;;;;;;;3.25;1.90;;;22.50;44.10;;;;;;6175959;28;80860;-58
2024/02/07 13:15:02;;;;;;;2.95;1.65;;;22.60;44.10;;;;;;6179975;28;80423;-57
2024/02/07 13:18:02;;;;;;;5.45;1.40;;;22.60;44.10;;;;;;6163130;28;80680;-58
2024/02/07 13:21:05;;;;;;;3.05;1.60;;;22.70;44.10;;;;;;6156828;28;80967;-58
2024/02/07 13:24:05;;;;;;;3.58;1.60;;;22.70;44.20;;;;;;6148603;28;80895;-59
2024/02/07 13:27:06;;;;;;;2.83;1.83;;;22.70;44.00;;;;;;6155737;28;80968;-55
2024/02/07 13:30:07;;;;;;;6.50;1.90;;;22.80;44.00;;;;;;6159915;28;80607;-58
2024/02/07 13:33:07;;;;;;;2.35;1.40;;;22.80;44.00;;;;;;6168793;28;80536;-56
2024/02/07 13:36:08;;;;;;;4.00;1.90;;;22.80;44.10;;;;;;6170408;28;80607;-58
2024/02/07 13:39:08;;;;;;;2.58;1.55;;;22.80;44.00;;;;;;6174641;28;80934;-57
2024/02/07 13:42:09;;;;;;;2.53;1.42;;;22.80;43.80;;;;;;6174469;28;80219;-59
2024/02/07 13:45:09;;;;;;;3.70;1.95;;;22.80;43.70;;;;;;6176682;28;80523;-59
2024/02/07 13:48:10;;;;;;;3.05;1.40;;;22.80;43.60;;;;;;6174452;28;80823;-61
2024/02/07 13:51:10;;;;;;;4.45;1.48;;;22.90;43.60;;;;;;6173567;28;82735;-58
2024/02/07 13:54:11;;;;;;;4.40;2.03;;;22.90;43.60;;;;;;6160887;28;81387;-59
2024/02/07 13:57:12;;;;;;;2.13;1.27;;;22.90;43.70;;;;;;6147230;28;86812;-61
2024/02/07 14:00:12;;;;;;;4.38;1.63;;;22.90;43.70;;;;;;6162495;28;80807;-54
2024/02/07 14:03:13;;;;;;;3.13;1.75;;;22.90;43.50;;;;;;6171489;28;84255;-55
2024/02/07 14:06:13;;;;;;;6.65;1.42;;;22.90;43.70;;;;;;6168292;28;80426;-54
2024/02/07 14:09:16;;;;;;;3.30;1.58;;;22.90;44.30;;;;;;6153517;28;86575;-57
2024/02/07 14:12:17;;;;;;;4.85;1.50;;;23.00;44.10;;;;;;6157489;28;80832;-54
2024/02/07 14:15:17;;;;;;;3.83;1.35;;;23.00;44.20;;;;;;6154993;28;80906;-56
2024/02/07 14:18:18;;;;;;;4.35;1.40;;;23.00;44.30;;;;;;6162117;28;80396;-55
2024/02/07 14:21:18;;;;;;;9.80;1.63;;;23.00;44.20;;;;;;6155926;28;83454;-55
2024/02/07 14:24:19;;;;;;;3.60;1.50;;;23.00;44.40;;;;;;6166614;28;80324;-53
2024/02/07 14:27:20;;;;;;;3.25;1.52;;;23.00;44.20;;;;;;6168532;28;81442;-55
2024/02/07 14:30:23;;;;;;;5.93;1.30;;;23.00;44.30;;;;;;6171869;28;80334;-55
2024/02/07 14:33:23;;;;;;;3.17;1.48;;;23.10;44.30;;;;;;6171314;28;80509;-57
2024/02/07 14:36:24;;;;;;;5.00;1.65;;;23.10;44.40;;;;;;6165479;28;82312;-56
2024/02/07 14:39:28;;;;;;;3.15;1.45;;;23.10;44.80;;;;;;6162348;28;80772;-56
2024/02/07 14:42:28;;;;;;;3.00;1.35;;;23.10;44.90;;;;;;6158013;28;81694;-54
2024/02/07 14:45:29;;;;;;;11.77;1.48;;;23.10;45.30;;;;;;6152298;28;82876;-60
2024/02/07 14:48:31;;;;;;;5.45;1.60;;;23.10;45.20;;;;;;6163573;28;80466;-56
2024/02/07 14:51:31;;;;;;;2.72;1.40;;;23.10;45.10;;;;;;6155471;28;80525;-58
2024/02/07 14:54:32;;;;;;;4.25;1.42;;;23.20;45.30;;;;;;6159409;28;81825;-55
2024/02/07 14:57:32;;;;;;;3.03;1.25;;;23.20;45.20;;;;;;6151159;28;80973;-67
2024/02/07 15:00:35;;;;;;;5.28;1.33;;;23.20;45.40;;;;;;6154916;28;80862;-63
2024/02/07 15:03:37;;;;;;;5.28;1.60;;;23.20;45.90;;;;;;6166698;28;83627;-70
2024/02/07 15:06:37;;;;;;;5.40;1.25;;;23.30;45.70;;;;;;6154693;28;83957;-66
2024/02/07 15:09:38;;;;;;;6.13;1.70;;;23.30;45.80;;;;;;6172383;28;83000;-65
2024/02/07 15:12:38;;;;;;;2.50;1.38;;;23.20;45.80;;;;;;6167269;28;81938;-62
2024/02/07 15:15:39;;;;;;;2.05;1.30;;;23.30;45.80;;;;;;6166941;28;80120;-55
2024/02/07 15:18:39;;;;;;;4.13;1.65;;;23.30;45.90;;;;;;6160326;28;81455;-59
2024/02/07 15:21:40;;;;;;;7.43;1.48;;;23.30;45.80;;;;;;6159353;28;82136;-60
2024/02/07 15:24:40;;;;;;;2.03;1.17;;;23.30;45.80;;;;;;6143097;28;89777;-59
2024/02/07 15:27:41;;;;;;;4.13;1.35;;;23.40;45.90;;;;;;6136838;28;80766;-58
2024/02/07 15:30:44;;;;;;;3.65;1.33;;;23.40;45.60;;;;;;6142810;28;80962;-58
2024/02/07 15:33:44;;;;;;;9.50;1.45;;;23.40;45.60;;;;;;6151316;28;81321;-59
2024/02/07 15:36:45;;;;;;;4.18;1.40;;;23.40;45.50;;;;;;6143762;28;81089;-61
2024/02/07 15:39:45;;;;;;;4.88;1.60;;;23.40;45.40;;;;;;6150758;28;80560;-66
2024/02/07 15:42:46;;;;;;;6.07;1.40;;;23.40;45.80;;;;;;6153517;28;80820;-66
2024/02/07 15:45:46;;;;;;;2.55;1.50;;;23.50;45.50;;;;;;6164469;28;80452;-66
2024/02/07 15:48:47;;;;;;;2.17;1.30;;;23.50;45.30;;;;;;6156473;28;81797;-66
2024/02/07 15:51:47;;;;;;;4.18;1.20;;;23.50;45.10;;;;;;6161201;28;84193;-58
2024/02/07 15:54:48;;;;;;;3.80;1.60;;;23.50;45.00;;;;;;6155686;28;80352;-56
2024/02/07 15:57:49;;;;;;;5.05;1.15;;;23.50;44.90;;;;;;6152923;28;80227;-58
2024/02/07 16:00:49;;;;;;;3.53;1.35;;;23.50;44.80;;;;;;6163836;28;80436;-56
2024/02/07 16:03:50;;;;;;;3.35;1.20;;;23.50;44.70;;;;;;6161165;28;80520;-57
2024/02/07 16:06:50;;;;;;;2.90;1.30;;;23.50;44.80;;;;;;6165790;28;80459;-58
2024/02/07 16:09:51;;;;;;;2.42;1.48;;;23.50;44.70;;;;;;6159759;28;80409;-58
2024/02/07 16:12:51;;;;;;;6.75;1.50;;;23.50;45.00;;;;;;6159775;28;80409;-56
2024/02/07 16:15:52;;;;;;;4.60;1.38;;;23.60;45.20;;;;;;6163399;28;80639;-54
2024/02/07 16:18:52;;;;;;;2.50;1.42;;;23.60;45.20;;;;;;6165863;28;83216;-56
2024/02/07 16:21:54;;;;;;;3.70;1.58;;;23.60;45.30;;;;;;6172207;28;80908;-54
2024/02/07 16:24:55;;;;;;;3.92;1.20;;;23.60;45.30;;;;;;6170427;28;80270;-55
2024/02/07 16:27:55;;;;;;;4.55;1.40;;;23.60;45.30;;;;;;6172008;28;80521;-64
2024/02/07 16:30:55;;;;;;;7.00;1.35;;;23.60;45.40;;;;;;6165650;28;80648;-70
2024/02/07 16:33:56;;;;;;;3.58;1.83;;;23.60;45.40;;;;;;6171215;28;80610;-71
2024/02/07 16:36:56;;;;;;;4.10;1.42;;;23.60;45.40;;;;;;6171885;28;80466;-66
2024/02/07 16:39:57;;;;;;;4.07;1.90;;;23.60;45.70;;;;;;6172140;28;80853;-67
2024/02/07 16:42:57;;;;;;;3.08;1.40;;;23.60;46.00;;;;;;6171298;28;80741;-66
2024/02/07 16:45:58;;;;;;;5.32;1.70;;;23.70;46.20;;;;;;6160930;28;82734;-62